createdAt,value
2019-03-28T00:01:34.322Z,6.66
2019-03-28T00:04:04.020Z,6.63
2019-03-28T00:06:33.581Z,6.60
2019-03-28T00:09:03.272Z,6.57
2019-03-28T00:11:33.388Z,6.55
2019-03-28T00:14:03.021Z,6.54
2019-03-28T00:16:32.516Z,6.55
2019-03-28T00:19:02.027Z,6.54
2019-03-28T00:21:31.591Z,6.54
2019-03-28T00:24:02.866Z,6.55
2019-03-28T00:26:32.358Z,6.54
2019-03-28T00:29:02.335Z,6.54
2019-03-28T00:31:31.915Z,6.54
2019-03-28T00:34:01.380Z,6.54
2019-03-28T00:36:30.871Z,6.55
2019-03-28T00:39:00.314Z,6.56
2019-03-28T00:41:29.961Z,6.59
2019-03-28T00:43:59.677Z,6.59
2019-03-28T00:46:30.240Z,6.60
2019-03-28T00:48:59.683Z,6.59
2019-03-28T00:51:30.070Z,6.60
2019-03-28T00:53:59.644Z,6.60
2019-03-28T00:56:42.693Z,6.62
2019-03-28T00:59:00.480Z,6.60
2019-03-28T01:01:29.896Z,6.62
2019-03-28T01:03:59.534Z,6.61
2019-03-28T01:06:29.160Z,6.63
2019-03-28T01:08:58.592Z,6.63
2019-03-28T01:11:28.056Z,6.63
2019-03-28T01:13:57.562Z,6.64
2019-03-28T01:16:27.062Z,6.64
2019-03-28T01:18:56.538Z,6.60
2019-03-28T01:21:26.052Z,6.57
2019-03-28T01:23:55.675Z,6.60
2019-03-28T01:26:25.107Z,6.60
2019-03-28T01:28:54.527Z,6.59
2019-03-28T01:31:24.016Z,6.60
2019-03-28T01:33:53.438Z,6.60
2019-03-28T01:36:22.927Z,6.57
2019-03-28T01:38:52.421Z,6.56
2019-03-28T01:41:21.940Z,6.54
2019-03-28T01:43:52.273Z,6.54
2019-03-28T01:46:21.759Z,6.53
2019-03-28T01:48:51.282Z,6.51
2019-03-28T01:51:20.899Z,6.48
2019-03-28T01:53:50.393Z,6.46
2019-03-28T01:56:19.919Z,6.43
2019-03-28T01:58:49.479Z,6.36
2019-03-28T02:01:19.037Z,6.28
2019-03-28T02:03:48.558Z,6.20
2019-03-28T02:06:18.028Z,6.11
2019-03-28T02:08:48.201Z,6.03
2019-03-28T02:11:18.686Z,5.95
2019-03-28T02:13:48.173Z,5.89
2019-03-28T02:16:17.654Z,5.87
2019-03-28T02:18:48.033Z,5.88
2019-03-28T02:21:17.539Z,5.92
2019-03-28T02:23:47.045Z,5.95
2019-03-28T02:26:16.548Z,5.96
2019-03-28T02:28:45.961Z,5.97
2019-03-28T02:31:16.924Z,5.98
2019-03-28T02:33:46.653Z,6.00
2019-03-28T02:36:17.133Z,6.05
2019-03-28T02:38:46.711Z,6.09
2019-03-28T02:41:18.257Z,6.11
2019-03-28T02:43:50.615Z,6.13
2019-03-28T02:46:22.574Z,6.14
2019-03-28T02:48:53.773Z,6.14
2019-03-28T02:51:23.657Z,6.16
2019-03-28T02:53:53.246Z,6.18
2019-03-28T02:56:22.770Z,6.20
2019-03-28T02:58:52.230Z,6.20
2019-03-28T03:01:21.727Z,6.22
2019-03-28T03:03:51.150Z,6.22
2019-03-28T03:06:20.595Z,6.23
2019-03-28T03:08:50.034Z,6.21
2019-03-28T03:11:19.489Z,6.23
2019-03-28T03:13:48.913Z,6.23
2019-03-28T03:16:18.381Z,6.23
2019-03-28T03:18:48.015Z,6.23
2019-03-28T03:21:17.462Z,6.23
2019-03-28T03:23:46.974Z,6.23
2019-03-28T03:26:16.601Z,6.25
2019-03-28T03:28:47.123Z,6.24
2019-03-28T03:31:21.038Z,6.23
2019-03-28T03:33:48.946Z,6.24
2019-03-28T03:36:19.476Z,6.24
2019-03-28T03:38:48.979Z,6.24
2019-03-28T03:41:18.425Z,6.26
2019-03-28T03:43:47.943Z,6.27
2019-03-28T03:46:17.534Z,6.28
2019-03-28T03:48:46.989Z,6.29
2019-03-28T03:51:16.584Z,6.31
2019-03-28T03:53:46.098Z,6.32
2019-03-28T03:56:15.630Z,6.35
2019-03-28T03:58:45.783Z,6.34
2019-03-28T04:01:15.625Z,6.35
2019-03-28T04:03:45.062Z,6.35
2019-03-28T04:06:14.647Z,6.35
2019-03-28T04:08:44.140Z,6.36
2019-03-28T04:11:13.650Z,6.37
2019-03-28T04:13:43.338Z,6.37
2019-03-28T04:16:12.883Z,6.36
2019-03-28T04:18:42.412Z,6.38
2019-03-28T04:21:12.044Z,6.37
2019-03-28T04:23:41.612Z,6.38
2019-03-28T04:26:11.047Z,6.39
2019-03-28T04:28:40.553Z,6.40
2019-03-28T04:31:11.084Z,6.40
2019-03-28T04:33:40.588Z,6.40
2019-03-28T04:36:10.000Z,6.41
2019-03-28T04:38:39.523Z,6.42
2019-03-28T04:41:08.954Z,6.41
2019-03-28T04:43:38.598Z,6.42
2019-03-28T04:46:08.138Z,6.43
2019-03-28T04:48:38.541Z,6.44
2019-03-28T04:51:08.049Z,6.44
2019-03-28T04:53:37.917Z,6.45
2019-03-28T04:56:07.936Z,6.46
2019-03-28T04:58:44.431Z,6.46
2019-03-28T05:01:08.850Z,6.47
2019-03-28T05:03:38.381Z,6.47
2019-03-28T05:06:08.028Z,6.47
2019-03-28T05:08:39.491Z,6.49
2019-03-28T05:11:09.007Z,6.49
2019-03-28T05:13:38.494Z,6.51
2019-03-28T05:16:07.926Z,6.52
2019-03-28T05:18:37.397Z,6.54
2019-03-28T05:21:07.888Z,6.55
2019-03-28T05:23:37.524Z,6.56
2019-03-28T05:26:07.044Z,6.59
2019-03-28T05:28:36.512Z,6.62
2019-03-28T05:31:06.031Z,6.64
2019-03-28T05:33:35.642Z,6.67
2019-03-28T05:36:05.156Z,6.70
2019-03-28T05:38:34.700Z,6.71
2019-03-28T05:41:04.286Z,6.70
2019-03-28T05:43:33.771Z,6.69
2019-03-28T05:46:03.195Z,6.71
2019-03-28T05:48:33.615Z,6.75
2019-03-28T05:51:03.064Z,6.80
2019-03-28T05:53:32.626Z,6.86
2019-03-28T05:56:02.184Z,6.93
2019-03-28T05:58:31.748Z,6.99
2019-03-28T06:01:01.245Z,7.00
2019-03-28T06:03:31.663Z,7.05
2019-03-28T06:36:30.444Z,7.19
2019-03-28T06:39:00.080Z,7.15
2019-03-28T06:41:29.696Z,7.16
2019-03-28T06:43:59.236Z,7.20
2019-03-28T06:46:28.666Z,7.23
2019-03-28T06:48:58.156Z,7.26
2019-03-28T06:51:28.523Z,7.24
2019-03-28T06:53:57.956Z,7.28
2019-03-28T06:56:27.537Z,7.37
2019-03-28T06:58:57.119Z,7.34
2019-03-28T07:01:26.635Z,7.34
2019-03-28T07:03:56.220Z,7.30
2019-03-28T07:06:25.716Z,7.29
2019-03-28T07:08:55.556Z,7.30
2019-03-28T07:11:51.937Z,7.31
2019-03-28T07:14:21.411Z,7.33
2019-03-28T07:16:50.833Z,7.31
2019-03-28T07:19:20.305Z,7.36
2019-03-28T07:21:49.747Z,7.37
2019-03-28T07:24:19.230Z,7.42
2019-03-28T07:26:48.826Z,7.49
2019-03-28T07:29:18.267Z,7.51
2019-03-28T07:31:48.379Z,7.50
2019-03-28T07:34:17.901Z,7.50
2019-03-28T07:36:47.470Z,7.51
2019-03-28T07:39:19.045Z,7.52
2019-03-28T07:41:49.176Z,7.56
2019-03-28T07:44:18.642Z,7.56
2019-03-28T07:46:48.394Z,7.57
2019-03-28T07:49:17.881Z,7.60
2019-03-28T07:51:47.648Z,7.55
2019-03-28T07:54:17.106Z,7.60
2019-03-28T07:56:46.568Z,7.60
2019-03-28T07:59:16.109Z,7.65
2019-03-28T08:09:17.549Z,7.78
2019-03-28T08:11:48.332Z,7.85
2019-03-28T08:14:17.976Z,7.88
2019-03-28T08:16:47.510Z,7.91
2019-03-28T08:19:17.038Z,7.94
2019-03-28T08:21:46.528Z,8.00
2019-03-28T08:24:17.002Z,8.13
2019-03-28T08:26:46.593Z,8.24
2019-03-28T08:29:16.079Z,8.40
2019-03-28T08:31:47.219Z,8.57
2019-03-28T08:34:16.916Z,8.80
2019-03-28T08:36:47.126Z,8.93
2019-03-28T08:39:17.077Z,9.13
2019-03-28T08:41:48.777Z,9.37
2019-03-28T08:44:17.835Z,9.38
2019-03-28T08:46:47.424Z,9.28
2019-03-28T08:49:16.834Z,9.31
2019-03-28T08:51:46.407Z,9.31
2019-03-28T08:54:15.889Z,9.48
2019-03-28T08:56:52.876Z,9.59
2019-03-28T08:59:22.343Z,9.72
2019-03-28T09:01:51.948Z,9.77
2019-03-28T09:04:21.354Z,9.93
2019-03-28T09:06:50.848Z,10.03
2019-03-28T09:09:21.335Z,10.15
2019-03-28T09:11:51.133Z,10.25
2019-03-28T09:14:23.151Z,10.37
2019-03-28T09:16:53.568Z,10.54
2019-03-28T09:19:22.972Z,10.89
2019-03-28T09:21:52.509Z,11.09
2019-03-28T09:24:24.025Z,11.28
2019-03-28T09:26:53.458Z,11.30
2019-03-28T09:29:22.986Z,11.21
2019-03-28T09:31:52.553Z,11.07
2019-03-28T09:34:22.062Z,10.92
2019-03-28T09:36:51.501Z,10.71
2019-03-28T09:39:25.019Z,10.60
2019-03-28T09:41:55.738Z,10.45
2019-03-28T09:44:25.167Z,10.27
2019-03-28T09:46:54.660Z,10.10
2019-03-28T09:49:24.325Z,9.93
2019-03-28T09:51:54.981Z,9.87
2019-03-28T09:54:24.468Z,9.84
2019-03-28T09:56:53.889Z,9.74
2019-03-28T09:59:24.517Z,9.70
2019-03-28T10:01:54.222Z,9.80
2019-03-28T10:04:23.772Z,9.99
2019-03-28T10:06:53.262Z,10.17
2019-03-28T10:09:22.781Z,10.33
2019-03-28T10:11:52.364Z,10.49
2019-03-28T10:14:21.802Z,10.62
2019-03-28T10:16:51.436Z,10.70
2019-03-28T10:19:21.082Z,11.07
2019-03-28T10:21:52.045Z,11.33
2019-03-28T10:24:22.599Z,11.43
2019-03-28T10:26:51.970Z,11.49
2019-03-28T10:29:21.452Z,11.64
2019-03-28T10:31:50.965Z,11.53
2019-03-28T10:34:20.697Z,11.59
2019-03-28T10:36:50.204Z,11.67
2019-03-28T10:39:19.660Z,11.66
2019-03-28T10:41:49.184Z,11.61
2019-03-28T10:44:18.673Z,11.45
2019-03-28T10:46:48.267Z,11.44
2019-03-28T10:49:17.678Z,11.49
2019-03-28T10:51:47.205Z,11.46
2019-03-28T10:54:20.957Z,11.36
2019-03-28T10:56:52.450Z,11.25
2019-03-28T10:59:25.363Z,11.29
2019-03-28T11:01:52.418Z,11.41
2019-03-28T11:04:22.952Z,11.51
2019-03-28T11:06:52.513Z,11.74
2019-03-28T11:09:22.007Z,11.96
2019-03-28T11:11:51.500Z,12.33
2019-03-28T11:14:21.124Z,12.53
2019-03-28T11:16:50.682Z,12.35
2019-03-28T11:19:20.258Z,11.94
2019-03-28T11:21:49.848Z,11.64
2019-03-28T11:24:19.527Z,11.40
2019-03-28T11:26:48.994Z,11.41
2019-03-28T11:29:18.502Z,11.50
2019-03-28T11:31:52.141Z,11.64
2019-03-28T11:34:19.236Z,11.71
2019-03-28T11:36:48.654Z,11.81
2019-03-28T11:39:18.229Z,12.05
2019-03-28T11:41:47.849Z,12.41
2019-03-28T11:44:19.367Z,12.57
2019-03-28T11:46:48.924Z,12.71
2019-03-28T11:49:18.561Z,12.81
2019-03-28T11:51:48.048Z,12.85
2019-03-28T11:54:17.553Z,13.04
2019-03-28T11:56:47.046Z,13.11
2019-03-28T11:59:16.578Z,13.26
2019-03-28T12:01:59.115Z,13.38
2019-03-28T12:04:17.227Z,13.49
2019-03-28T12:06:48.929Z,13.68
2019-03-28T12:09:17.927Z,13.82
2019-03-28T12:11:47.462Z,13.78
2019-03-28T12:14:17.107Z,13.83
2019-03-28T12:16:46.554Z,13.86
2019-03-28T12:19:17.873Z,14.32
2019-03-28T12:21:47.623Z,14.11
2019-03-28T12:24:17.141Z,13.98
2019-03-28T12:26:46.559Z,13.87
2019-03-28T12:29:16.237Z,14.51
2019-03-28T12:31:45.722Z,14.52
2019-03-28T12:34:15.344Z,14.14
2019-03-28T12:36:44.854Z,13.62
2019-03-28T12:39:15.751Z,13.23
2019-03-28T12:41:45.340Z,12.77
2019-03-28T12:44:33.948Z,12.41
2019-03-28T12:47:03.544Z,12.05
2019-03-28T12:49:33.038Z,11.78
2019-03-28T12:52:02.659Z,11.57
2019-03-28T12:54:33.233Z,11.48
2019-03-28T12:57:02.665Z,11.36
2019-03-28T12:59:33.776Z,11.30
2019-03-28T13:02:03.490Z,11.27
2019-03-28T13:04:33.915Z,11.27
2019-03-28T13:07:06.060Z,11.23
2019-03-28T13:09:35.866Z,11.24
2019-03-28T13:12:07.249Z,11.27
2019-03-28T13:14:36.781Z,11.37
2019-03-28T13:17:06.357Z,11.39
2019-03-28T13:19:35.898Z,11.39
2019-03-28T13:22:05.374Z,11.40
2019-03-28T13:24:34.923Z,11.56
2019-03-28T13:27:04.468Z,11.66
2019-03-28T13:29:33.984Z,11.82
2019-03-28T13:32:03.455Z,11.99
2019-03-28T13:34:32.885Z,12.19
2019-03-28T13:37:02.314Z,12.43
2019-03-28T13:39:31.754Z,12.52
2019-03-28T13:42:01.251Z,12.70
2019-03-28T13:44:30.754Z,12.98
2019-03-28T13:47:00.244Z,13.27
2019-03-28T13:49:29.678Z,13.50
2019-03-28T13:51:59.172Z,13.83
2019-03-28T13:54:28.603Z,14.63
2019-03-28T13:56:58.048Z,16.23
2019-03-28T13:59:27.504Z,18.27
2019-03-28T14:01:56.918Z,20.12
2019-03-28T14:04:26.502Z,20.97
2019-03-28T14:06:56.556Z,21.45
2019-03-28T14:09:26.171Z,21.85
2019-03-28T14:11:56.300Z,21.81
2019-03-28T14:14:29.832Z,19.67
2019-03-28T14:16:59.262Z,17.79
2019-03-28T14:19:28.755Z,16.66
2019-03-28T14:21:58.184Z,15.89
2019-03-28T14:24:27.673Z,16.10
2019-03-28T14:26:57.150Z,16.73
2019-03-28T14:29:29.930Z,17.43
2019-03-28T14:32:00.023Z,18.75
2019-03-28T14:34:29.592Z,20.88
2019-03-28T14:36:59.156Z,22.19
2019-03-28T14:39:28.607Z,23.03
2019-03-28T14:41:58.095Z,21.64
2019-03-28T14:44:27.541Z,20.33
2019-03-28T14:46:57.072Z,19.71
2019-03-28T14:49:26.623Z,18.38
2019-03-28T14:51:56.167Z,16.63
2019-03-28T14:54:25.621Z,15.47
2019-03-28T14:56:56.783Z,14.59
2019-03-28T14:59:32.728Z,14.05
2019-03-28T15:01:58.549Z,13.72
2019-03-28T15:04:27.988Z,13.49
2019-03-28T15:06:57.514Z,13.23
2019-03-28T15:09:27.001Z,13.13
2019-03-28T15:11:56.580Z,13.13
2019-03-28T15:14:26.057Z,13.04
2019-03-28T15:16:55.582Z,13.03
2019-03-28T15:19:25.049Z,13.12
2019-03-28T15:21:54.508Z,15.79
2019-03-28T15:24:23.920Z,17.98
2019-03-28T15:26:53.563Z,19.96
2019-03-28T15:29:23.026Z,21.57
2019-03-28T15:31:53.554Z,22.52
2019-03-28T15:34:22.966Z,21.98
2019-03-28T15:36:53.554Z,22.53
2019-03-28T15:39:23.167Z,22.36
2019-03-28T15:41:52.650Z,19.61
2019-03-28T15:44:22.078Z,17.55
2019-03-28T15:46:52.570Z,16.19
2019-03-28T15:49:22.058Z,15.04
2019-03-28T15:51:51.493Z,14.10
2019-03-28T15:54:20.933Z,13.56
2019-03-28T15:56:50.382Z,13.15
2019-03-28T15:59:19.794Z,12.86
2019-03-28T16:01:49.231Z,12.64
2019-03-28T16:04:18.800Z,12.50
2019-03-28T16:06:48.365Z,12.36
2019-03-28T16:09:18.534Z,12.18
2019-03-28T16:12:01.701Z,12.08
2019-03-28T16:14:19.272Z,12.01
2019-03-28T16:16:48.830Z,11.99
2019-03-28T16:19:18.405Z,12.00
2019-03-28T16:21:47.947Z,11.96
2019-03-28T16:24:17.534Z,11.90
2019-03-28T16:26:47.300Z,11.85
2019-03-28T16:29:16.812Z,11.82
2019-03-28T16:31:46.410Z,11.76
2019-03-28T16:34:15.849Z,11.71
2019-03-28T16:36:45.412Z,11.63
2019-03-28T16:39:14.855Z,11.53
2019-03-28T16:41:44.465Z,11.39
2019-03-28T16:44:15.998Z,11.24
2019-03-28T16:46:45.460Z,11.13
2019-03-28T16:49:15.092Z,11.03
2019-03-28T16:51:44.498Z,10.95
2019-03-28T16:54:14.011Z,10.88
2019-03-28T16:56:44.570Z,10.82
2019-03-28T16:59:15.109Z,10.75
2019-03-28T17:01:45.834Z,10.67
2019-03-28T17:04:20.860Z,10.61
2019-03-28T17:06:46.527Z,10.52
2019-03-28T17:09:16.092Z,10.45
2019-03-28T17:11:45.591Z,10.36
2019-03-28T17:14:15.036Z,10.26
2019-03-28T17:16:45.515Z,10.17
2019-03-28T17:19:15.183Z,10.08
2019-03-28T17:21:44.690Z,9.99
2019-03-28T17:24:14.279Z,9.94
2019-03-28T17:26:43.830Z,9.87
2019-03-28T17:29:13.401Z,9.83
2019-03-28T17:31:42.970Z,9.80
2019-03-28T17:34:13.458Z,9.76
2019-03-28T17:36:43.017Z,9.74
2019-03-28T17:39:12.485Z,9.71
2019-03-28T17:41:42.064Z,9.69
2019-03-28T17:44:14.315Z,9.69
2019-03-28T17:46:42.975Z,9.70
2019-03-28T17:49:12.489Z,9.68
2019-03-28T17:51:45.227Z,9.63
2019-03-28T17:54:14.727Z,9.60
2019-03-28T17:56:44.249Z,9.55
2019-03-28T17:59:18.357Z,9.47
2019-03-28T18:01:48.813Z,9.42
2019-03-28T18:04:23.008Z,9.36
2019-03-28T18:06:49.585Z,9.28
2019-03-28T18:09:19.284Z,9.22
2019-03-28T18:11:48.942Z,9.15
2019-03-28T18:14:18.488Z,9.12
2019-03-28T18:16:48.039Z,9.07
2019-03-28T18:19:18.629Z,9.02
2019-03-28T18:21:48.145Z,8.98
2019-03-28T18:24:17.735Z,8.95
2019-03-28T18:26:48.339Z,8.87
2019-03-28T18:29:19.373Z,8.79
2019-03-28T18:31:52.470Z,8.74
2019-03-28T18:34:21.221Z,8.71
2019-03-28T18:36:50.884Z,8.67
2019-03-28T18:39:20.384Z,8.60
2019-03-28T18:41:49.889Z,8.53
2019-03-28T18:44:19.434Z,8.45
2019-03-28T18:46:54.760Z,8.38
2019-03-28T18:49:24.215Z,8.30
2019-03-28T18:51:54.579Z,8.18
2019-03-28T18:54:24.086Z,8.06
2019-03-28T18:56:54.574Z,7.99
2019-03-28T18:59:24.085Z,7.92
2019-03-28T19:01:53.584Z,7.85
2019-03-28T19:04:23.151Z,7.79
2019-03-28T19:06:52.601Z,7.75
2019-03-28T19:09:22.077Z,7.75
2019-03-28T19:11:51.598Z,7.79
2019-03-28T19:14:21.081Z,7.77
2019-03-28T19:16:52.202Z,7.74
2019-03-28T19:19:22.376Z,7.71
2019-03-28T19:21:55.742Z,7.68
2019-03-28T19:24:24.024Z,7.65
2019-03-28T19:26:53.451Z,7.58
2019-03-28T19:29:23.860Z,7.52
2019-03-28T19:31:53.491Z,7.53
2019-03-28T19:34:25.310Z,7.51
2019-03-28T19:36:56.544Z,7.52
2019-03-28T19:39:31.157Z,7.50
2019-03-28T19:42:04.519Z,7.42
2019-03-28T19:44:34.163Z,7.37
2019-03-28T19:47:03.710Z,7.27
2019-03-28T19:49:33.362Z,7.23
2019-03-28T19:52:02.931Z,7.16
2019-03-28T19:54:32.565Z,7.15
2019-03-28T19:57:03.205Z,7.16
2019-03-28T19:59:32.770Z,7.10
2019-03-28T20:02:02.314Z,7.04
2019-03-28T20:04:31.919Z,6.99
2019-03-28T20:07:01.426Z,6.94
2019-03-28T20:09:32.627Z,6.91
2019-03-28T20:12:03.560Z,6.86
2019-03-28T20:14:33.503Z,6.68
2019-03-28T20:17:03.102Z,6.61
2019-03-28T20:19:32.646Z,6.48
2019-03-28T20:22:02.118Z,6.37
2019-03-28T20:24:31.563Z,6.30
2019-03-28T20:27:01.245Z,6.20
2019-03-28T20:29:33.355Z,6.03
2019-03-28T20:32:03.255Z,5.86
2019-03-28T20:34:32.813Z,5.65
2019-03-28T20:37:02.398Z,5.48
2019-03-28T20:39:33.203Z,5.51
2019-03-28T20:42:04.967Z,5.46
2019-03-28T20:44:37.985Z,5.42
2019-03-28T20:47:07.706Z,5.32
2019-03-28T20:49:37.261Z,5.28
2019-03-28T20:52:09.403Z,5.22
2019-03-28T20:54:38.088Z,5.23
2019-03-28T20:57:07.689Z,5.22
2019-03-28T20:59:37.123Z,5.18
2019-03-28T21:02:06.847Z,5.12
2019-03-28T21:04:37.873Z,5.10
2019-03-28T21:07:07.487Z,4.97
2019-03-28T21:09:36.910Z,4.82
2019-03-28T21:12:07.353Z,4.67
2019-03-28T21:14:37.812Z,4.54
2019-03-28T21:17:07.331Z,4.40
2019-03-28T21:19:37.490Z,4.16
2019-03-28T21:22:07.031Z,4.16
2019-03-28T21:24:37.040Z,4.08
2019-03-28T21:27:08.540Z,4.08
2019-03-28T21:29:48.398Z,3.97
2019-03-28T21:32:09.922Z,3.97
2019-03-28T21:34:40.047Z,3.88
2019-03-28T21:37:10.669Z,3.88
2019-03-28T21:39:40.866Z,3.88
2019-03-28T21:42:11.950Z,3.88
2019-03-28T21:44:42.221Z,3.94
2019-03-28T21:47:12.062Z,3.94
2019-03-28T21:49:42.121Z,4.00
2019-03-28T21:52:11.661Z,4.00
2019-03-28T21:54:41.875Z,3.86
2019-03-28T21:57:14.410Z,3.86
2019-03-28T21:59:43.256Z,3.69
2019-03-28T22:02:13.645Z,3.69
2019-03-28T22:04:43.766Z,3.69
2019-03-28T22:07:14.926Z,3.69
2019-03-28T22:09:45.150Z,3.69
2019-03-28T22:12:15.312Z,3.69
2019-03-28T22:14:48.137Z,3.69
2019-03-28T22:17:17.479Z,3.69
2019-03-28T22:19:47.527Z,3.69
2019-03-28T22:22:18.773Z,3.69
2019-03-28T22:24:48.376Z,3.69
2019-03-28T22:27:19.731Z,3.84
2019-03-28T22:29:50.701Z,3.84
2019-03-28T22:32:21.263Z,4.00
2019-03-28T22:34:50.661Z,4.00
2019-03-28T22:37:20.815Z,4.05
2019-03-28T22:39:51.202Z,4.05
2019-03-28T22:42:21.358Z,4.01
2019-03-28T22:44:51.198Z,4.01
2019-03-28T22:47:21.603Z,3.90
2019-03-28T22:49:51.037Z,3.90
2019-03-28T22:52:21.234Z,3.78
2019-03-28T22:54:50.707Z,3.78
2019-03-28T22:57:20.830Z,3.57
2019-03-28T22:59:50.256Z,3.57
2019-03-28T23:02:20.437Z,3.40
2019-03-28T23:04:52.014Z,3.40
2019-03-28T23:07:22.294Z,3.40
2019-03-28T23:09:52.448Z,3.40
2019-03-28T23:12:24.737Z,3.40
2019-03-28T23:14:54.825Z,3.40
2019-03-28T23:17:26.157Z,3.40
2019-03-28T23:19:58.217Z,3.40
2019-03-28T23:22:29.323Z,3.40
2019-03-28T23:25:01.463Z,3.40
2019-03-28T23:27:33.794Z,3.40
2019-03-28T23:30:08.279Z,3.40
2019-03-28T23:32:39.740Z,2.88
2019-03-28T23:35:10.528Z,2.88
2019-03-28T23:37:40.831Z,2.98
2019-03-28T23:40:11.298Z,2.91
2019-03-28T23:42:40.848Z,2.91
2019-03-28T23:45:12.740Z,2.80
2019-03-28T23:47:42.729Z,2.80
2019-03-28T23:50:12.963Z,2.65
2019-03-28T23:52:42.856Z,2.65
2019-03-28T23:55:14.342Z,2.65
2019-03-28T23:57:44.433Z,2.57
